sensor_id;sensor_type;location;lat;lon;timestamp;temperature;humidity
56300;DHT22;42209;6.376;-10.782;2022-12-04T00:01:35;26.20;36.10
56300;DHT22;42209;6.376;-10.782;2022-12-04T00:04:03;26.20;36.00
56300;DHT22;42209;6.376;-10.782;2022-12-04T00:06:34;26.20;35.80
56300;DHT22;42209;6.376;-10.782;2022-12-04T00:09:02;26.20;35.60
56300;DHT22;42209;6.376;-10.782;2022-12-04T00:11:32;26.20;35.90
56300;DHT22;42209;6.376;-10.782;2022-12-04T00:14:01;26.20;35.50
56300;DHT22;42209;6.376;-10.782;2022-12-04T00:16:34;26.20;35.60
56300;DHT22;42209;6.376;-10.782;2022-12-04T00:19:03;26.20;35.60
56300;DHT22;42209;6.376;-10.782;2022-12-04T00:21:32;26.20;35.60
56300;DHT22;42209;6.376;-10.782;2022-12-04T00:24:01;26.20;35.40
56300;DHT22;42209;6.376;-10.782;2022-12-04T00:26:30;26.20;35.20
56300;DHT22;42209;6.376;-10.782;2022-12-04T00:29:00;26.20;35.00
56300;DHT22;42209;6.376;-10.782;2022-12-04T00:31:30;26.20;35.20
56300;DHT22;42209;6.376;-10.782;2022-12-04T00:33:59;26.20;35.80
56300;DHT22;42209;6.376;-10.782;2022-12-04T00:36:29;26.20;35.90
56300;DHT22;42209;6.376;-10.782;2022-12-04T00:38:58;26.20;36.00
56300;DHT22;42209;6.376;-10.782;2022-12-04T00:41:29;26.20;35.80
56300;DHT22;42209;6.376;-10.782;2022-12-04T00:43:59;26.20;35.90
56300;DHT22;42209;6.376;-10.782;2022-12-04T00:46:28;26.20;35.50
56300;DHT22;42209;6.376;-10.782;2022-12-04T00:48:56;26.20;35.20
56300;DHT22;42209;6.376;-10.782;2022-12-04T00:51:25;26.20;35.40
56300;DHT22;42209;6.376;-10.782;2022-12-04T00:53:55;26.20;35.10
56300;DHT22;42209;6.376;-10.782;2022-12-04T00:56:26;26.20;35.60
56300;DHT22;42209;6.376;-10.782;2022-12-04T00:58:57;26.20;35.40
56300;DHT22;42209;6.376;-10.782;2022-12-04T01:01:27;26.20;35.10
56300;DHT22;42209;6.376;-10.782;2022-12-04T01:03:56;26.10;34.90
56300;DHT22;42209;6.376;-10.782;2022-12-04T01:06:27;26.10;35.30
56300;DHT22;42209;6.376;-10.782;2022-12-04T01:08:57;26.20;35.10
56300;DHT22;42209;6.376;-10.782;2022-12-04T01:11:27;26.10;34.70
56300;DHT22;42209;6.376;-10.782;2022-12-04T01:13:56;26.10;35.20
56300;DHT22;42209;6.376;-10.782;2022-12-04T01:16:29;26.20;36.50
56300;DHT22;42209;6.376;-10.782;2022-12-04T01:18:58;26.20;35.80
56300;DHT22;42209;6.376;-10.782;2022-12-04T01:21:26;26.10;35.70
56300;DHT22;42209;6.376;-10.782;2022-12-04T01:23:55;26.10;35.60
56300;DHT22;42209;6.376;-10.782;2022-12-04T01:26:24;26.10;35.50
56300;DHT22;42209;6.376;-10.782;2022-12-04T01:28:52;26.10;35.30
56300;DHT22;42209;6.376;-10.782;2022-12-04T01:31:21;26.10;35.00
56300;DHT22;42209;6.376;-10.782;2022-12-04T01:33:50;26.10;35.10
56300;DHT22;42209;6.376;-10.782;2022-12-04T01:36:22;26.10;35.20
56300;DHT22;42209;6.376;-10.782;2022-12-04T01:38:51;26.10;35.00
56300;DHT22;42209;6.376;-10.782;2022-12-04T01:41:21;26.10;35.20
56300;DHT22;42209;6.376;-10.782;2022-12-04T01:44:25;26.10;35.00
56300;DHT22;42209;6.376;-10.782;2022-12-04T01:46:55;26.10;35.00
56300;DHT22;42209;6.376;-10.782;2022-12-04T01:49:42;26.10;34.80
56300;DHT22;42209;6.376;-10.782;2022-12-04T01:52:13;26.10;34.70
56300;DHT22;42209;6.376;-10.782;2022-12-04T01:54:45;26.10;34.60
56300;DHT22;42209;6.376;-10.782;2022-12-04T01:57:17;26.10;35.50
56300;DHT22;42209;6.376;-10.782;2022-12-04T01:59:55;26.10;35.70
56300;DHT22;42209;6.376;-10.782;2022-12-04T02:02:36;26.10;35.50
56300;DHT22;42209;6.376;-10.782;2022-12-04T02:05:09;26.10;35.20
56300;DHT22;42209;6.376;-10.782;2022-12-04T02:07:39;26.10;35.80
56300;DHT22;42209;6.376;-10.782;2022-12-04T02:10:09;26.10;35.20
56300;DHT22;42209;6.376;-10.782;2022-12-04T02:15:44;26.00;34.80
56300;DHT22;42209;6.376;-10.782;2022-12-04T02:18:58;26.10;34.80
56300;DHT22;42209;6.376;-10.782;2022-12-04T02:21:31;26.00;34.60
56300;DHT22;42209;6.376;-10.782;2022-12-04T02:27:05;26.00;34.60
56300;DHT22;42209;6.376;-10.782;2022-12-04T02:29:50;26.10;34.80
56300;DHT22;42209;6.376;-10.782;2022-12-04T02:35:01;26.00;34.40
56300;DHT22;42209;6.376;-10.782;2022-12-04T02:37:38;26.10;34.80
56300;DHT22;42209;6.376;-10.782;2022-12-04T02:40:24;26.00;35.00
56300;DHT22;42209;6.376;-10.782;2022-12-04T02:43:24;26.00;35.30
56300;DHT22;42209;6.376;-10.782;2022-12-04T02:46:04;26.10;35.20
56300;DHT22;42209;6.376;-10.782;2022-12-04T02:48:42;26.00;35.10
56300;DHT22;42209;6.376;-10.782;2022-12-04T02:51:13;26.00;35.20
56300;DHT22;42209;6.376;-10.782;2022-12-04T02:53:47;26.00;35.20
56300;DHT22;42209;6.376;-10.782;2022-12-04T02:56:27;26.00;34.90
56300;DHT22;42209;6.376;-10.782;2022-12-04T02:59:09;26.00;35.20
56300;DHT22;42209;6.376;-10.782;2022-12-04T03:01:40;26.00;34.90
56300;DHT22;42209;6.376;-10.782;2022-12-04T03:04:21;26.00;35.10
56300;DHT22;42209;6.376;-10.782;2022-12-04T03:07:01;26.00;35.10
56300;DHT22;42209;6.376;-10.782;2022-12-04T03:09:46;26.00;35.00
56300;DHT22;42209;6.376;-10.782;2022-12-04T03:13:21;26.00;35.10
56300;DHT22;42209;6.376;-10.782;2022-12-04T03:15:27;26.00;34.80
56300;DHT22;42209;6.376;-10.782;2022-12-04T03:18:02;26.00;35.80
56300;DHT22;42209;6.376;-10.782;2022-12-04T03:20:33;26.00;35.80
56300;DHT22;42209;6.376;-10.782;2022-12-04T03:23:10;26.00;35.80
56300;DHT22;42209;6.376;-10.782;2022-12-04T03:25:55;26.00;35.80
56300;DHT22;42209;6.376;-10.782;2022-12-04T03:28:30;26.00;35.50
56300;DHT22;42209;6.376;-10.782;2022-12-04T03:31:03;25.90;35.30
56300;DHT22;42209;6.376;-10.782;2022-12-04T03:33:38;26.00;35.10
56300;DHT22;42209;6.376;-10.782;2022-12-04T03:36:34;25.90;35.20
56300;DHT22;42209;6.376;-10.782;2022-12-04T03:39:24;26.00;35.20
56300;DHT22;42209;6.376;-10.782;2022-12-04T03:44:45;26.00;35.00
56300;DHT22;42209;6.376;-10.782;2022-12-04T03:47:41;25.90;35.00
56300;DHT22;42209;6.376;-10.782;2022-12-04T03:50:12;26.00;34.90
56300;DHT22;42209;6.376;-10.782;2022-12-04T03:52:50;25.90;34.40
56300;DHT22;42209;6.376;-10.782;2022-12-04T03:55:25;25.90;34.50
56300;DHT22;42209;6.376;-10.782;2022-12-04T03:58:12;26.00;34.90
56300;DHT22;42209;6.376;-10.782;2022-12-04T04:00:43;25.90;35.10
56300;DHT22;42209;6.376;-10.782;2022-12-04T04:03:27;25.90;35.40
56300;DHT22;42209;6.376;-10.782;2022-12-04T04:06:01;25.90;35.20
56300;DHT22;42209;6.376;-10.782;2022-12-04T04:08:35;25.90;35.30
56300;DHT22;42209;6.376;-10.782;2022-12-04T04:11:27;25.90;35.10
56300;DHT22;42209;6.376;-10.782;2022-12-04T04:14:02;25.90;34.80
56300;DHT22;42209;6.376;-10.782;2022-12-04T04:16:34;25.90;34.80
56300;DHT22;42209;6.376;-10.782;2022-12-04T04:19:04;25.90;34.80
56300;DHT22;42209;6.376;-10.782;2022-12-04T04:21:36;25.90;34.50
56300;DHT22;42209;6.376;-10.782;2022-12-04T04:24:06;25.90;34.50
56300;DHT22;42209;6.376;-10.782;2022-12-04T04:26:42;25.90;34.60
56300;DHT22;42209;6.376;-10.782;2022-12-04T04:29:11;25.90;34.70
56300;DHT22;42209;6.376;-10.782;2022-12-04T04:31:42;25.90;34.70
56300;DHT22;42209;6.376;-10.782;2022-12-04T04:34:36;25.90;34.60
56300;DHT22;42209;6.376;-10.782;2022-12-04T04:43:03;25.90;35.20
56300;DHT22;42209;6.376;-10.782;2022-12-04T04:45:36;25.80;35.10
56300;DHT22;42209;6.376;-10.782;2022-12-04T04:48:09;25.90;35.10
56300;DHT22;42209;6.376;-10.782;2022-12-04T04:50:40;25.90;34.80
56300;DHT22;42209;6.376;-10.782;2022-12-04T04:53:14;25.90;34.70
56300;DHT22;42209;6.376;-10.782;2022-12-04T04:55:45;25.90;34.70
56300;DHT22;42209;6.376;-10.782;2022-12-04T04:58:16;25.80;34.50
56300;DHT22;42209;6.376;-10.782;2022-12-04T05:01:13;25.90;34.40
56300;DHT22;42209;6.376;-10.782;2022-12-04T05:03:39;25.80;34.20
56300;DHT22;42209;6.376;-10.782;2022-12-04T05:06:07;25.80;34.50
56300;DHT22;42209;6.376;-10.782;2022-12-04T05:08:35;25.80;34.50
56300;DHT22;42209;6.376;-10.782;2022-12-04T05:11:04;25.80;34.90
56300;DHT22;42209;6.376;-10.782;2022-12-04T05:13:32;25.80;34.40
56300;DHT22;42209;6.376;-10.782;2022-12-04T05:16:04;25.80;33.90
56300;DHT22;42209;6.376;-10.782;2022-12-04T05:18:33;25.80;34.20
56300;DHT22;42209;6.376;-10.782;2022-12-04T05:21:09;25.80;34.00
56300;DHT22;42209;6.376;-10.782;2022-12-04T05:23:39;25.80;34.70
56300;DHT22;42209;6.376;-10.782;2022-12-04T05:26:07;25.80;34.50
56300;DHT22;42209;6.376;-10.782;2022-12-04T05:28:36;25.80;34.60
56300;DHT22;42209;6.376;-10.782;2022-12-04T05:31:04;25.80;34.60
56300;DHT22;42209;6.376;-10.782;2022-12-04T05:33:33;25.80;34.30
56300;DHT22;42209;6.376;-10.782;2022-12-04T05:36:06;25.80;34.60
56300;DHT22;42209;6.376;-10.782;2022-12-04T05:38:35;25.80;34.20
56300;DHT22;42209;6.376;-10.782;2022-12-04T05:41:04;25.70;34.20
56300;DHT22;42209;6.376;-10.782;2022-12-04T05:43:33;25.80;34.20
56300;DHT22;42209;6.376;-10.782;2022-12-04T05:46:06;25.70;34.50
56300;DHT22;42209;6.376;-10.782;2022-12-04T05:48:35;25.70;34.10
56300;DHT22;42209;6.376;-10.782;2022-12-04T05:51:08;25.70;34.30
56300;DHT22;42209;6.376;-10.782;2022-12-04T05:53:37;25.70;34.10
56300;DHT22;42209;6.376;-10.782;2022-12-04T05:56:06;25.70;33.80
56300;DHT22;42209;6.376;-10.782;2022-12-04T05:58:36;25.70;33.90
56300;DHT22;42209;6.376;-10.782;2022-12-04T06:01:10;25.70;33.80
56300;DHT22;42209;6.376;-10.782;2022-12-04T06:03:39;25.70;33.80
56300;DHT22;42209;6.376;-10.782;2022-12-04T06:06:12;25.80;34.20
56300;DHT22;42209;6.376;-10.782;2022-12-04T06:08:48;25.70;34.30
56300;DHT22;42209;6.376;-10.782;2022-12-04T06:11:19;25.80;34.70
56300;DHT22;42209;6.376;-10.782;2022-12-04T06:13:48;25.70;34.40
56300;DHT22;42209;6.376;-10.782;2022-12-04T06:16:25;25.70;34.20
56300;DHT22;42209;6.376;-10.782;2022-12-04T06:18:57;25.70;33.90
56300;DHT22;42209;6.376;-10.782;2022-12-04T06:21:28;25.70;34.10
56300;DHT22;42209;6.376;-10.782;2022-12-04T06:23:57;25.70;34.10
56300;DHT22;42209;6.376;-10.782;2022-12-04T06:26:25;25.70;33.90
56300;DHT22;42209;6.376;-10.782;2022-12-04T06:28:57;25.70;33.90
56300;DHT22;42209;6.376;-10.782;2022-12-04T06:31:27;25.60;33.90
56300;DHT22;42209;6.376;-10.782;2022-12-04T06:33:57;25.70;34.10
56300;DHT22;42209;6.376;-10.782;2022-12-04T06:36:25;25.70;34.00
56300;DHT22;42209;6.376;-10.782;2022-12-04T06:38:54;25.70;33.80
56300;DHT22;42209;6.376;-10.782;2022-12-04T06:41:24;25.60;33.60
56300;DHT22;42209;6.376;-10.782;2022-12-04T06:43:53;25.60;33.50
56300;DHT22;42209;6.376;-10.782;2022-12-04T06:46:26;25.70;33.60
56300;DHT22;42209;6.376;-10.782;2022-12-04T06:48:56;25.60;33.90
56300;DHT22;42209;6.376;-10.782;2022-12-04T06:51:33;25.70;34.30
56300;DHT22;42209;6.376;-10.782;2022-12-04T06:54:03;25.70;34.30
56300;DHT22;42209;6.376;-10.782;2022-12-04T06:56:32;25.60;34.10
56300;DHT22;42209;6.376;-10.782;2022-12-04T06:59:02;25.60;34.40
56300;DHT22;42209;6.376;-10.782;2022-12-04T07:01:32;25.60;34.10
56300;DHT22;42209;6.376;-10.782;2022-12-04T07:04:02;25.60;34.30
56300;DHT22;42209;6.376;-10.782;2022-12-04T07:06:33;25.60;34.00
56300;DHT22;42209;6.376;-10.782;2022-12-04T07:11:33;25.60;33.90
56300;DHT22;42209;6.376;-10.782;2022-12-04T07:14:02;25.60;34.10
56300;DHT22;42209;6.376;-10.782;2022-12-04T07:16:31;25.60;33.90
56300;DHT22;42209;6.376;-10.782;2022-12-04T07:19:08;25.60;33.80
56300;DHT22;42209;6.376;-10.782;2022-12-04T07:21:37;25.60;33.90
56300;DHT22;42209;6.376;-10.782;2022-12-04T07:24:05;25.60;33.80
56300;DHT22;42209;6.376;-10.782;2022-12-04T07:26:34;25.60;33.70
56300;DHT22;42209;6.376;-10.782;2022-12-04T07:29:02;25.60;33.70
56300;DHT22;42209;6.376;-10.782;2022-12-04T07:31:30;25.60;33.70
56300;DHT22;42209;6.376;-10.782;2022-12-04T07:33:59;25.60;34.40
56300;DHT22;42209;6.376;-10.782;2022-12-04T07:36:27;25.60;34.80
56300;DHT22;42209;6.376;-10.782;2022-12-04T07:38:56;25.60;34.90
56300;DHT22;42209;6.376;-10.782;2022-12-04T07:41:24;25.60;35.00
56300;DHT22;42209;6.376;-10.782;2022-12-04T07:43:53;25.60;34.70
56300;DHT22;42209;6.376;-10.782;2022-12-04T07:46:24;25.60;34.70
56300;DHT22;42209;6.376;-10.782;2022-12-04T07:48:57;25.60;34.90
56300;DHT22;42209;6.376;-10.782;2022-12-04T07:51:27;25.60;34.80
56300;DHT22;42209;6.376;-10.782;2022-12-04T07:53:56;25.60;34.70
56300;DHT22;42209;6.376;-10.782;2022-12-04T07:56:31;25.60;34.90
56300;DHT22;42209;6.376;-10.782;2022-12-04T07:59:00;25.60;35.00
56300;DHT22;42209;6.376;-10.782;2022-12-04T08:01:29;25.60;34.90
56300;DHT22;42209;6.376;-10.782;2022-12-04T08:03:59;25.60;35.00
56300;DHT22;42209;6.376;-10.782;2022-12-04T08:06:29;25.60;34.80
56300;DHT22;42209;6.376;-10.782;2022-12-04T08:08:59;25.60;35.00
56300;DHT22;42209;6.376;-10.782;2022-12-04T08:11:35;25.60;35.10
56300;DHT22;42209;6.376;-10.782;2022-12-04T08:14:05;25.60;35.10
56300;DHT22;42209;6.376;-10.782;2022-12-04T08:16:35;25.60;35.10
56300;DHT22;42209;6.376;-10.782;2022-12-04T08:19:03;25.70;35.60
56300;DHT22;42209;6.376;-10.782;2022-12-04T08:21:32;25.70;36.10
56300;DHT22;42209;6.376;-10.782;2022-12-04T08:24:01;25.70;36.30
56300;DHT22;42209;6.376;-10.782;2022-12-04T08:26:31;25.60;36.20
56300;DHT22;42209;6.376;-10.782;2022-12-04T08:29:01;25.70;36.40
56300;DHT22;42209;6.376;-10.782;2022-12-04T08:31:32;25.60;36.20
56300;DHT22;42209;6.376;-10.782;2022-12-04T08:34:03;25.70;36.30
56300;DHT22;42209;6.376;-10.782;2022-12-04T08:36:33;25.70;36.30
56300;DHT22;42209;6.376;-10.782;2022-12-04T08:39:02;25.70;36.50
56300;DHT22;42209;6.376;-10.782;2022-12-04T08:41:31;25.70;36.50
56300;DHT22;42209;6.376;-10.782;2022-12-04T08:44:00;25.70;36.60
56300;DHT22;42209;6.376;-10.782;2022-12-04T08:46:29;25.60;36.70
56300;DHT22;42209;6.376;-10.782;2022-12-04T08:48:58;25.60;36.70
56300;DHT22;42209;6.376;-10.782;2022-12-04T08:51:27;25.60;36.80
56300;DHT22;42209;6.376;-10.782;2022-12-04T08:53:58;25.70;36.50
56300;DHT22;42209;6.376;-10.782;2022-12-04T08:56:29;25.60;36.60
56300;DHT22;42209;6.376;-10.782;2022-12-04T08:58:59;25.70;36.40
56300;DHT22;42209;6.376;-10.782;2022-12-04T09:01:29;25.60;36.70
56300;DHT22;42209;6.376;-10.782;2022-12-04T09:03:59;25.70;37.10
56300;DHT22;42209;6.376;-10.782;2022-12-04T09:06:35;25.70;37.10
56300;DHT22;42209;6.376;-10.782;2022-12-04T09:09:04;25.60;37.00
56300;DHT22;42209;6.376;-10.782;2022-12-04T09:11:33;25.60;37.00
56300;DHT22;42209;6.376;-10.782;2022-12-04T09:14:04;25.70;36.80
56300;DHT22;42209;6.376;-10.782;2022-12-04T09:16:35;25.60;36.60
56300;DHT22;42209;6.376;-10.782;2022-12-04T09:19:04;25.60;36.50
56300;DHT22;42209;6.376;-10.782;2022-12-04T09:21:34;25.60;36.50
56300;DHT22;42209;6.376;-10.782;2022-12-04T09:24:03;25.70;36.40
56300;DHT22;42209;6.376;-10.782;2022-12-04T09:26:37;25.70;36.40
56300;DHT22;42209;6.376;-10.782;2022-12-04T09:29:11;25.60;36.50
56300;DHT22;42209;6.376;-10.782;2022-12-04T09:31:44;25.70;36.80
56300;DHT22;42209;6.376;-10.782;2022-12-04T09:34:15;25.70;36.80
56300;DHT22;42209;6.376;-10.782;2022-12-04T09:36:43;25.70;37.00
56300;DHT22;42209;6.376;-10.782;2022-12-04T09:39:12;25.70;37.30
56300;DHT22;42209;6.376;-10.782;2022-12-04T09:42:04;25.70;37.40
56300;DHT22;42209;6.376;-10.782;2022-12-04T09:44:43;25.70;37.50
56300;DHT22;42209;6.376;-10.782;2022-12-04T09:47:26;25.70;37.60
56300;DHT22;42209;6.376;-10.782;2022-12-04T09:49:56;25.70;37.60
56300;DHT22;42209;6.376;-10.782;2022-12-04T09:58:16;25.70;37.60
56300;DHT22;42209;6.376;-10.782;2022-12-04T10:00:51;25.70;37.60
56300;DHT22;42209;6.376;-10.782;2022-12-04T10:03:26;25.70;37.10
56300;DHT22;42209;6.376;-10.782;2022-12-04T10:08:41;25.70;37.30
56300;DHT22;42209;6.376;-10.782;2022-12-04T10:24:55;25.70;37.70
56300;DHT22;42209;6.376;-10.782;2022-12-04T10:27:50;25.80;37.70
56300;DHT22;42209;6.376;-10.782;2022-12-04T10:30:23;25.70;37.20
56300;DHT22;42209;6.376;-10.782;2022-12-04T10:35:43;25.70;38.10
56300;DHT22;42209;6.376;-10.782;2022-12-04T10:41:34;25.80;38.00
56300;DHT22;42209;6.376;-10.782;2022-12-04T10:44:16;25.80;37.70
56300;DHT22;42209;6.376;-10.782;2022-12-04T10:46:57;25.80;37.50
56300;DHT22;42209;6.376;-10.782;2022-12-04T10:49:32;25.80;37.50
56300;DHT22;42209;6.376;-10.782;2022-12-04T10:52:02;25.80;37.60
56300;DHT22;42209;6.376;-10.782;2022-12-04T10:55:00;25.80;37.80
56300;DHT22;42209;6.376;-10.782;2022-12-04T11:00:26;25.80;38.00
56300;DHT22;42209;6.376;-10.782;2022-12-04T11:03:01;25.80;38.60
56300;DHT22;42209;6.376;-10.782;2022-12-04T11:05:41;25.80;39.00
56300;DHT22;42209;6.376;-10.782;2022-12-04T11:08:21;25.90;39.20
56300;DHT22;42209;6.376;-10.782;2022-12-04T11:11:02;25.80;39.30
56300;DHT22;42209;6.376;-10.782;2022-12-04T11:13:32;25.90;39.50
56300;DHT22;42209;6.376;-10.782;2022-12-04T11:16:01;25.90;39.50
56300;DHT22;42209;6.376;-10.782;2022-12-04T11:18:34;25.90;39.30
56300;DHT22;42209;6.376;-10.782;2022-12-04T11:21:28;25.90;39.50
56300;DHT22;42209;6.376;-10.782;2022-12-04T11:23:58;25.90;39.20
56300;DHT22;42209;6.376;-10.782;2022-12-04T11:26:46;25.90;39.10
56300;DHT22;42209;6.376;-10.782;2022-12-04T11:29:17;25.90;39.00
56300;DHT22;42209;6.376;-10.782;2022-12-04T11:31:54;25.90;38.70
56300;DHT22;42209;6.376;-10.782;2022-12-04T11:34:27;25.90;38.70
56300;DHT22;42209;6.376;-10.782;2022-12-04T11:36:58;25.90;38.80
56300;DHT22;42209;6.376;-10.782;2022-12-04T11:39:39;25.90;38.90
56300;DHT22;42209;6.376;-10.782;2022-12-04T11:42:26;25.90;39.00
56300;DHT22;42209;6.376;-10.782;2022-12-04T11:44:56;25.90;38.90
56300;DHT22;42209;6.376;-10.782;2022-12-04T11:47:28;25.90;39.00
56300;DHT22;42209;6.376;-10.782;2022-12-04T11:50:41;25.90;38.90
56300;DHT22;42209;6.376;-10.782;2022-12-04T11:53:16;25.90;39.50
56300;DHT22;42209;6.376;-10.782;2022-12-04T12:09:37;25.90;39.90
56300;DHT22;42209;6.376;-10.782;2022-12-04T12:15:18;26.00;40.30
56300;DHT22;42209;6.376;-10.782;2022-12-04T12:21:52;26.00;39.80
56300;DHT22;42209;6.376;-10.782;2022-12-04T12:35:24;26.00;38.40
56300;DHT22;42209;6.376;-10.782;2022-12-04T12:38:19;25.90;38.40
56300;DHT22;42209;6.376;-10.782;2022-12-04T12:41:19;26.00;38.20
56300;DHT22;42209;6.376;-10.782;2022-12-04T12:44:00;26.00;38.40
56300;DHT22;42209;6.376;-10.782;2022-12-04T12:57:24;26.00;39.00
56300;DHT22;42209;6.376;-10.782;2022-12-04T13:02:54;26.00;39.40
56300;DHT22;42209;6.376;-10.782;2022-12-04T13:05:38;26.00;39.10
56300;DHT22;42209;6.376;-10.782;2022-12-04T13:08:42;26.00;39.10
56300;DHT22;42209;6.376;-10.782;2022-12-04T13:11:18;26.00;39.30
56300;DHT22;42209;6.376;-10.782;2022-12-04T13:13:57;26.10;39.70
56300;DHT22;42209;6.376;-10.782;2022-12-04T13:16:44;26.10;39.40
56300;DHT22;42209;6.376;-10.782;2022-12-04T13:19:33;26.10;39.20
56300;DHT22;42209;6.376;-10.782;2022-12-04T13:28:44;26.10;39.20
56300;DHT22;42209;6.376;-10.782;2022-12-04T13:34:13;26.10;38.40
56300;DHT22;42209;6.376;-10.782;2022-12-04T13:36:59;26.10;38.70
56300;DHT22;42209;6.376;-10.782;2022-12-04T13:42:05;26.20;39.70
56300;DHT22;42209;6.376;-10.782;2022-12-04T13:44:34;26.20;41.00
56300;DHT22;42209;6.376;-10.782;2022-12-04T13:47:07;26.20;40.90
56300;DHT22;42209;6.376;-10.782;2022-12-04T13:49:39;26.10;40.20
56300;DHT22;42209;6.376;-10.782;2022-12-04T13:52:35;26.20;40.70
56300;DHT22;42209;6.376;-10.782;2022-12-04T13:55:21;26.20;40.20
56300;DHT22;42209;6.376;-10.782;2022-12-04T13:58:39;26.20;41.10
56300;DHT22;42209;6.376;-10.782;2022-12-04T14:00:43;26.20;40.70
56300;DHT22;42209;6.376;-10.782;2022-12-04T14:03:31;26.20;40.90
56300;DHT22;42209;6.376;-10.782;2022-12-04T14:06:03;26.20;40.90
56300;DHT22;42209;6.376;-10.782;2022-12-04T14:08:37;26.30;41.10
56300;DHT22;42209;6.376;-10.782;2022-12-04T14:11:13;26.20;40.50
56300;DHT22;42209;6.376;-10.782;2022-12-04T14:13:45;26.30;40.90
56300;DHT22;42209;6.376;-10.782;2022-12-04T14:16:22;26.30;40.50
56300;DHT22;42209;6.376;-10.782;2022-12-04T14:18:59;26.20;39.90
56300;DHT22;42209;6.376;-10.782;2022-12-04T14:21:42;26.20;39.90
56300;DHT22;42209;6.376;-10.782;2022-12-04T14:24:30;26.30;39.40
56300;DHT22;42209;6.376;-10.782;2022-12-04T14:26:59;26.20;39.30
56300;DHT22;42209;6.376;-10.782;2022-12-04T14:29:49;26.20;39.20
56300;DHT22;42209;6.376;-10.782;2022-12-04T14:32:25;26.20;38.80
56300;DHT22;42209;6.376;-10.782;2022-12-04T14:34:55;26.20;38.80
56300;DHT22;42209;6.376;-10.782;2022-12-04T14:37:29;26.20;38.90
56300;DHT22;42209;6.376;-10.782;2022-12-04T14:40:00;26.20;38.70
56300;DHT22;42209;6.376;-10.782;2022-12-04T14:42:36;26.20;38.80
56300;DHT22;42209;6.376;-10.782;2022-12-04T14:45:37;26.20;38.40
56300;DHT22;42209;6.376;-10.782;2022-12-04T14:48:39;26.20;38.30
56300;DHT22;42209;6.376;-10.782;2022-12-04T14:51:13;26.20;38.80
56300;DHT22;42209;6.376;-10.782;2022-12-04T14:54:10;26.30;38.50
56300;DHT22;42209;6.376;-10.782;2022-12-04T14:59:51;26.30;40.00
56300;DHT22;42209;6.376;-10.782;2022-12-04T15:02:38;26.30;39.50
56300;DHT22;42209;6.376;-10.782;2022-12-04T15:05:32;26.20;39.30
56300;DHT22;42209;6.376;-10.782;2022-12-04T15:08:03;26.30;39.30
56300;DHT22;42209;6.376;-10.782;2022-12-04T15:10:34;26.20;38.80
56300;DHT22;42209;6.376;-10.782;2022-12-04T15:13:05;26.30;38.70
56300;DHT22;42209;6.376;-10.782;2022-12-04T15:15:33;26.20;38.30
56300;DHT22;42209;6.376;-10.782;2022-12-04T15:18:17;26.20;38.40
56300;DHT22;42209;6.376;-10.782;2022-12-04T15:25:52;26.20;38.30
56300;DHT22;42209;6.376;-10.782;2022-12-04T15:30:51;26.30;38.30
56300;DHT22;42209;6.376;-10.782;2022-12-04T15:33:29;26.30;38.40
56300;DHT22;42209;6.376;-10.782;2022-12-04T15:36:40;26.30;38.90
56300;DHT22;42209;6.376;-10.782;2022-12-04T15:39:04;26.30;38.70
56300;DHT22;42209;6.376;-10.782;2022-12-04T15:41:34;26.30;39.30
56300;DHT22;42209;6.376;-10.782;2022-12-04T15:46:56;26.40;40.80
56300;DHT22;42209;6.376;-10.782;2022-12-04T15:49:33;26.40;40.00
56300;DHT22;42209;6.376;-10.782;2022-12-04T15:52:05;26.40;41.10
56300;DHT22;42209;6.376;-10.782;2022-12-04T15:54:34;26.50;40.90
56300;DHT22;42209;6.376;-10.782;2022-12-04T15:57:06;26.40;40.50
56300;DHT22;42209;6.376;-10.782;2022-12-04T15:59:46;26.50;41.00
56300;DHT22;42209;6.376;-10.782;2022-12-04T16:04:51;26.60;41.50
56300;DHT22;42209;6.376;-10.782;2022-12-04T16:07:21;26.50;41.10
56300;DHT22;42209;6.376;-10.782;2022-12-04T16:09:58;26.60;40.70
56300;DHT22;42209;6.376;-10.782;2022-12-04T16:12:31;26.60;40.50
56300;DHT22;42209;6.376;-10.782;2022-12-04T16:15:00;26.60;41.20
56300;DHT22;42209;6.376;-10.782;2022-12-04T16:17:31;26.60;41.20
56300;DHT22;42209;6.376;-10.782;2022-12-04T16:20:03;26.60;41.40
56300;DHT22;42209;6.376;-10.782;2022-12-04T16:22:31;26.60;41.20
56300;DHT22;42209;6.376;-10.782;2022-12-04T16:25:00;26.60;40.90
56300;DHT22;42209;6.376;-10.782;2022-12-04T16:27:28;26.60;40.60
56300;DHT22;42209;6.376;-10.782;2022-12-04T16:29:56;26.60;41.70
56300;DHT22;42209;6.376;-10.782;2022-12-04T16:32:28;26.60;40.40
56300;DHT22;42209;6.376;-10.782;2022-12-04T16:34:58;26.60;40.60
56300;DHT22;42209;6.376;-10.782;2022-12-04T16:37:26;26.60;40.70
56300;DHT22;42209;6.376;-10.782;2022-12-04T16:39:55;26.60;40.40
56300;DHT22;42209;6.376;-10.782;2022-12-04T16:42:27;26.60;40.70
56300;DHT22;42209;6.376;-10.782;2022-12-04T16:44:57;26.60;40.60
56300;DHT22;42209;6.376;-10.782;2022-12-04T16:47:26;26.70;40.80
56300;DHT22;42209;6.376;-10.782;2022-12-04T16:49:54;26.70;40.10
56300;DHT22;42209;6.376;-10.782;2022-12-04T16:52:22;26.70;40.10
56300;DHT22;42209;6.376;-10.782;2022-12-04T16:54:50;26.70;40.40
56300;DHT22;42209;6.376;-10.782;2022-12-04T16:57:19;26.70;40.90
56300;DHT22;42209;6.376;-10.782;2022-12-04T16:59:47;26.80;41.20
56300;DHT22;42209;6.376;-10.782;2022-12-04T17:02:24;26.80;41.70
56300;DHT22;42209;6.376;-10.782;2022-12-04T17:04:53;26.80;41.60
56300;DHT22;42209;6.376;-10.782;2022-12-04T17:07:24;26.80;41.20
56300;DHT22;42209;6.376;-10.782;2022-12-04T17:09:54;26.80;41.40
56300;DHT22;42209;6.376;-10.782;2022-12-04T17:12:22;26.80;40.40
56300;DHT22;42209;6.376;-10.782;2022-12-04T17:14:50;26.80;40.30
56300;DHT22;42209;6.376;-10.782;2022-12-04T17:17:20;26.80;40.40
56300;DHT22;42209;6.376;-10.782;2022-12-04T17:19:48;26.80;40.30
56300;DHT22;42209;6.376;-10.782;2022-12-04T17:22:17;26.80;39.90
56300;DHT22;42209;6.376;-10.782;2022-12-04T17:24:47;26.80;39.60
56300;DHT22;42209;6.376;-10.782;2022-12-04T17:27:24;26.90;40.00
56300;DHT22;42209;6.376;-10.782;2022-12-04T17:29:52;26.80;39.70
56300;DHT22;42209;6.376;-10.782;2022-12-04T17:32:22;26.80;39.30
56300;DHT22;42209;6.376;-10.782;2022-12-04T17:34:53;26.90;39.80
56300;DHT22;42209;6.376;-10.782;2022-12-04T17:37:23;26.80;39.90
56300;DHT22;42209;6.376;-10.782;2022-12-04T17:39:51;26.90;40.00
56300;DHT22;42209;6.376;-10.782;2022-12-04T17:42:19;26.80;39.70
56300;DHT22;42209;6.376;-10.782;2022-12-04T17:44:48;26.80;39.70
56300;DHT22;42209;6.376;-10.782;2022-12-04T17:47:17;26.90;39.30
56300;DHT22;42209;6.376;-10.782;2022-12-04T17:49:45;26.80;40.10
56300;DHT22;42209;6.376;-10.782;2022-12-04T17:52:14;26.90;40.50
56300;DHT22;42209;6.376;-10.782;2022-12-04T17:54:43;26.90;39.10
56300;DHT22;42209;6.376;-10.782;2022-12-04T17:57:12;26.90;39.50
56300;DHT22;42209;6.376;-10.782;2022-12-04T17:59:41;26.90;39.20
56300;DHT22;42209;6.376;-10.782;2022-12-04T18:02:12;26.90;39.60